createdAt,value
2022-12-02T00:00:41.126Z,8.80
2022-12-02T00:03:11.562Z,8.80
2022-12-02T00:05:39.470Z,8.80
2022-12-02T00:08:26.952Z,8.90
2022-12-02T00:10:55.353Z,8.90
2022-12-02T00:13:24.030Z,8.80
2022-12-02T00:16:01.083Z,8.80
2022-12-02T00:18:28.729Z,8.80
2022-12-02T00:20:56.263Z,8.70
2022-12-02T00:23:23.788Z,8.70
2022-12-02T00:25:52.331Z,8.70
2022-12-02T00:28:19.845Z,8.70
2022-12-02T00:30:47.078Z,8.60
2022-12-02T00:33:15.623Z,8.70
2022-12-02T00:35:43.847Z,8.60
2022-12-02T00:38:11.020Z,8.70
2022-12-02T00:40:38.153Z,8.60
2022-12-02T00:43:23.903Z,8.60
2022-12-02T00:46:09.959Z,8.70
2022-12-02T00:48:37.170Z,8.70
2022-12-02T00:51:04.607Z,8.70
2022-12-02T00:53:32.933Z,8.70
2022-12-02T00:56:00.189Z,8.80
2022-12-02T00:58:27.469Z,8.80
2022-12-02T01:00:55.108Z,8.80
2022-12-02T01:03:22.310Z,8.70
2022-12-02T01:05:50.387Z,8.70
2022-12-02T01:08:17.703Z,8.70
2022-12-02T01:10:44.871Z,8.70
2022-12-02T01:13:13.178Z,8.70
2022-12-02T01:15:40.333Z,8.70
2022-12-02T01:18:07.550Z,8.70
2022-12-02T01:20:34.692Z,8.60
2022-12-02T01:23:01.990Z,8.60
2022-12-02T01:25:29.164Z,8.60
2022-12-02T01:27:56.692Z,8.60
2022-12-02T01:30:23.870Z,8.50
2022-12-02T01:32:51.010Z,8.50
2022-12-02T01:35:18.389Z,8.50
2022-12-02T01:37:45.552Z,8.50
2022-12-02T01:40:13.507Z,8.50
2022-12-02T01:42:41.179Z,8.50
2022-12-02T01:45:09.313Z,8.50
2022-12-02T01:47:37.263Z,8.50
2022-12-02T01:50:05.497Z,8.50
2022-12-02T01:52:32.888Z,8.50
2022-12-02T01:55:00.267Z,8.50
2022-12-02T01:57:29.521Z,8.40
2022-12-02T01:59:57.186Z,8.50
2022-12-02T02:02:31.951Z,8.40
2022-12-02T02:05:00.796Z,8.40
2022-12-02T02:07:29.374Z,8.40
2022-12-02T02:09:57.043Z,8.40
2022-12-02T02:12:25.132Z,8.40
2022-12-02T02:14:53.956Z,8.40
2022-12-02T02:17:21.461Z,8.40
2022-12-02T02:19:48.814Z,8.40
2022-12-02T02:22:24.367Z,8.30
2022-12-02T02:24:53.037Z,8.40
2022-12-02T02:27:20.571Z,8.30
2022-12-02T02:29:48.513Z,8.30
2022-12-02T02:32:15.792Z,8.30
2022-12-02T02:34:43.010Z,8.30
2022-12-02T02:37:10.219Z,8.30
2022-12-02T02:39:37.419Z,8.30
2022-12-02T02:42:04.688Z,8.30
2022-12-02T02:44:32.088Z,8.30
2022-12-02T02:46:59.353Z,8.30
2022-12-02T02:49:28.513Z,8.30
2022-12-02T02:51:55.690Z,8.30
2022-12-02T02:54:23.033Z,8.20
2022-12-02T02:56:50.263Z,8.20
2022-12-02T02:59:18.129Z,8.20
2022-12-02T03:01:48.859Z,8.20
2022-12-02T03:04:17.862Z,8.20
2022-12-02T03:06:45.496Z,8.20
2022-12-02T03:09:14.519Z,8.20
2022-12-02T03:11:44.249Z,8.20
2022-12-02T03:14:15.604Z,8.20
2022-12-02T03:16:44.226Z,8.20
2022-12-02T03:19:11.967Z,8.20
2022-12-02T03:21:39.200Z,8.20
2022-12-02T03:24:06.611Z,8.20
2022-12-02T03:26:34.457Z,8.20
2022-12-02T03:29:02.687Z,8.20
2022-12-02T03:31:30.555Z,8.20
2022-12-02T03:33:58.031Z,8.10
2022-12-02T03:36:25.696Z,8.10
2022-12-02T03:38:53.005Z,8.10
2022-12-02T03:41:20.804Z,8.10
2022-12-02T03:43:48.067Z,8.10
2022-12-02T03:46:15.301Z,8.10
2022-12-02T03:48:43.203Z,8.10
2022-12-02T03:51:11.551Z,8.10
2022-12-02T03:53:39.822Z,8.10
2022-12-02T03:56:07.915Z,8.10
2022-12-02T03:58:38.060Z,8.10
2022-12-02T04:01:05.650Z,8.20
2022-12-02T04:03:32.909Z,8.10
2022-12-02T04:06:00.103Z,8.10
2022-12-02T04:08:27.275Z,8.10
2022-12-02T04:10:54.521Z,8.10
2022-12-02T04:13:21.740Z,8.10
2022-12-02T04:15:48.982Z,8.10
2022-12-02T04:18:16.172Z,8.00
2022-12-02T04:20:43.419Z,8.00
2022-12-02T04:23:10.762Z,8.10
2022-12-02T04:25:37.999Z,8.20
2022-12-02T04:28:05.286Z,8.10
2022-12-02T04:30:32.507Z,8.10
2022-12-02T04:32:59.667Z,8.10
2022-12-02T04:35:26.812Z,8.10
2022-12-02T04:37:55.223Z,8.10
2022-12-02T04:40:22.401Z,8.10
2022-12-02T04:42:49.763Z,8.10
2022-12-02T04:45:17.058Z,8.10
2022-12-02T04:47:44.243Z,8.10
2022-12-02T04:50:11.702Z,8.10
2022-12-02T04:52:38.950Z,8.10
2022-12-02T04:55:06.381Z,8.00
2022-12-02T04:57:33.564Z,8.00
2022-12-02T05:00:00.715Z,7.90
2022-12-02T05:02:27.999Z,7.90
2022-12-02T05:04:55.428Z,7.90
2022-12-02T05:07:22.816Z,7.80
2022-12-02T05:09:49.986Z,7.80
2022-12-02T05:12:17.515Z,7.80
2022-12-02T05:14:44.709Z,7.80
2022-12-02T05:17:11.872Z,7.80
2022-12-02T05:19:39.018Z,7.80
2022-12-02T05:22:06.208Z,7.70
2022-12-02T05:24:33.362Z,7.70
2022-12-02T05:27:00.668Z,7.60
2022-12-02T05:29:27.938Z,7.60
2022-12-02T05:31:55.169Z,7.60
2022-12-02T05:34:22.455Z,7.60
2022-12-02T05:36:49.631Z,7.50
2022-12-02T05:39:16.827Z,7.50
2022-12-02T05:41:44.228Z,7.50
2022-12-02T05:44:33.753Z,7.60
2022-12-02T05:47:07.107Z,7.60
2022-12-02T05:49:35.174Z,7.60
2022-12-02T05:52:07.341Z,7.60
2022-12-02T05:54:34.526Z,7.50
2022-12-02T05:57:03.036Z,7.50
2022-12-02T05:59:30.467Z,7.50
2022-12-02T06:01:59.088Z,7.50
2022-12-02T06:04:31.103Z,7.50
2022-12-02T06:07:01.963Z,7.50
2022-12-02T06:09:30.399Z,7.50
2022-12-02T06:12:00.172Z,7.50
2022-12-02T06:14:31.437Z,7.60
2022-12-02T06:17:00.476Z,7.50
2022-12-02T06:19:34.237Z,7.50
2022-12-02T06:22:04.300Z,7.50
2022-12-02T06:24:33.736Z,7.60
2022-12-02T06:27:02.942Z,7.60
2022-12-02T06:29:30.692Z,7.60
2022-12-02T06:31:59.321Z,7.60
2022-12-02T06:34:31.429Z,7.60
2022-12-02T06:36:59.748Z,7.70
2022-12-02T06:39:26.965Z,7.70
2022-12-02T06:41:55.422Z,7.70
2022-12-02T06:44:41.716Z,7.80
2022-12-02T06:47:27.612Z,7.80
2022-12-02T06:49:54.762Z,7.70
2022-12-02T06:52:22.444Z,7.70
2022-12-02T06:54:53.228Z,7.70
2022-12-02T06:57:20.746Z,7.80
2022-12-02T06:59:48.746Z,7.80
2022-12-02T07:02:23.415Z,7.90
2022-12-02T07:04:52.348Z,7.90
2022-12-02T07:07:21.591Z,7.90
2022-12-02T07:09:51.520Z,7.90
2022-12-02T07:12:23.563Z,8.00
2022-12-02T07:14:51.040Z,8.00
2022-12-02T07:17:19.231Z,8.00
2022-12-02T07:19:47.286Z,8.00
2022-12-02T07:22:16.060Z,8.00
2022-12-02T07:24:45.754Z,8.10
2022-12-02T07:27:20.959Z,8.10
2022-12-02T07:29:49.285Z,8.00
2022-12-02T07:32:16.502Z,8.10
2022-12-02T07:34:43.698Z,8.10
2022-12-02T07:37:10.999Z,8.20
2022-12-02T07:39:38.203Z,8.20
2022-12-02T07:42:05.387Z,8.20
2022-12-02T07:44:32.584Z,8.20
2022-12-02T07:46:59.744Z,8.30
2022-12-02T07:49:28.049Z,8.30
2022-12-02T07:51:55.317Z,8.30
2022-12-02T07:54:22.566Z,8.30
2022-12-02T07:56:49.804Z,8.40
2022-12-02T07:59:17.017Z,8.40
2022-12-02T08:01:45.529Z,8.40
2022-12-02T08:04:12.895Z,8.40
2022-12-02T08:06:40.549Z,8.50
2022-12-02T08:09:08.683Z,8.50
2022-12-02T08:11:36.423Z,8.50
2022-12-02T08:14:03.610Z,8.70
2022-12-02T08:16:30.986Z,8.60
2022-12-02T08:18:58.201Z,8.60
2022-12-02T08:21:25.426Z,8.70
2022-12-02T08:23:52.590Z,8.70
2022-12-02T08:26:19.821Z,8.60
2022-12-02T08:28:50.855Z,8.60
2022-12-02T08:31:21.350Z,8.60
2022-12-02T08:33:48.972Z,8.60
2022-12-02T08:36:16.208Z,8.50
2022-12-02T08:38:43.769Z,8.50
2022-12-02T08:41:13.940Z,8.50
2022-12-02T08:43:42.123Z,8.50
2022-12-02T08:46:10.204Z,8.50
2022-12-02T08:48:37.717Z,8.60
2022-12-02T08:51:05.023Z,8.60
2022-12-02T08:53:32.253Z,8.60
2022-12-02T08:55:59.406Z,8.70
2022-12-02T08:58:26.772Z,8.80
2022-12-02T09:00:53.945Z,8.80
2022-12-02T09:03:21.114Z,9.00
2022-12-02T09:05:48.303Z,9.10
2022-12-02T09:08:15.502Z,9.40
2022-12-02T09:10:42.762Z,9.40
2022-12-02T09:13:10.063Z,9.50
2022-12-02T09:15:37.256Z,9.50
2022-12-02T09:18:05.248Z,9.50
2022-12-02T09:20:34.691Z,9.50
2022-12-02T09:23:01.896Z,9.50
2022-12-02T09:25:30.230Z,9.50
2022-12-02T09:27:57.942Z,9.50
2022-12-02T09:30:25.212Z,9.50
2022-12-02T09:32:52.397Z,9.60
2022-12-02T09:35:19.617Z,9.60
2022-12-02T09:37:47.125Z,9.40
2022-12-02T09:40:17.572Z,9.40
2022-12-02T09:42:44.958Z,9.40
2022-12-02T09:45:12.534Z,9.50
2022-12-02T09:47:40.125Z,9.50
2022-12-02T09:50:07.759Z,9.40
2022-12-02T09:52:34.938Z,9.30
2022-12-02T09:55:02.140Z,9.30
2022-12-02T09:57:32.110Z,9.30
2022-12-02T10:00:04.063Z,9.30
2022-12-02T10:02:35.130Z,9.30
2022-12-02T10:05:22.754Z,9.20
2022-12-02T10:07:50.544Z,9.20
2022-12-02T10:10:31.824Z,9.20
2022-12-02T10:13:01.824Z,9.20
2022-12-02T10:15:33.300Z,9.20
2022-12-02T10:18:02.733Z,9.20
2022-12-02T10:20:29.885Z,9.00
2022-12-02T10:23:16.784Z,8.90
2022-12-02T10:25:45.803Z,8.90
2022-12-02T10:28:21.308Z,9.00
2022-12-02T10:30:49.610Z,9.00
2022-12-02T10:33:17.202Z,9.10
2022-12-02T10:35:48.449Z,9.10
2022-12-02T10:38:34.451Z,9.10
2022-12-02T10:41:19.816Z,9.10
2022-12-02T10:43:52.899Z,9.20
2022-12-02T10:46:21.157Z,9.20
2022-12-02T10:48:48.888Z,9.20
2022-12-02T10:51:17.576Z,9.30
2022-12-02T10:53:45.546Z,9.30
2022-12-02T10:56:16.956Z,9.30
2022-12-02T10:58:44.159Z,9.30
2022-12-02T11:01:12.743Z,9.30
2022-12-02T11:03:40.308Z,9.30
2022-12-02T11:06:13.535Z,9.40
2022-12-02T11:08:42.687Z,9.50
2022-12-02T11:11:17.576Z,9.60
2022-12-02T11:13:53.951Z,9.60
2022-12-02T11:16:27.139Z,9.70
2022-12-02T11:18:57.755Z,9.80
2022-12-02T11:21:28.014Z,9.90
2022-12-02T11:24:14.949Z,9.90
2022-12-02T11:27:00.244Z,10.00
2022-12-02T11:29:28.219Z,10.20
2022-12-02T11:32:02.566Z,10.30
2022-12-02T11:35:08.581Z,10.40
2022-12-02T11:37:36.541Z,10.40
2022-12-02T11:40:03.660Z,10.50
2022-12-02T11:42:31.765Z,10.50
2022-12-02T11:45:17.260Z,10.40
2022-12-02T11:47:46.128Z,10.40
2022-12-02T11:50:16.472Z,10.40
2022-12-02T11:52:44.493Z,10.30
2022-12-02T11:55:14.737Z,10.30
2022-12-02T11:57:41.993Z,10.30
2022-12-02T12:00:19.590Z,10.30
2022-12-02T12:03:03.721Z,10.20
2022-12-02T12:05:31.108Z,10.30
2022-12-02T12:08:02.826Z,10.30
2022-12-02T12:10:30.606Z,10.40
2022-12-02T12:13:12.864Z,10.50
2022-12-02T12:15:57.096Z,10.60
2022-12-02T12:18:36.410Z,10.70
2022-12-02T12:21:03.861Z,10.80
2022-12-02T12:23:39.008Z,10.90
2022-12-02T12:26:07.282Z,10.80
2022-12-02T12:28:35.940Z,10.80
2022-12-02T12:31:05.222Z,10.80
2022-12-02T12:33:33.644Z,10.70
2022-12-02T12:36:00.944Z,10.60
2022-12-02T12:38:30.929Z,10.50
2022-12-02T12:40:58.701Z,10.40
2022-12-02T12:43:25.908Z,10.40
2022-12-02T12:45:53.158Z,10.30
2022-12-02T12:48:20.453Z,10.30
2022-12-02T12:50:47.664Z,10.10
2022-12-02T12:53:14.905Z,10.10
2022-12-02T12:55:42.093Z,10.00
2022-12-02T12:58:09.377Z,10.10
2022-12-02T13:00:36.626Z,10.00
2022-12-02T13:03:03.905Z,10.00
2022-12-02T13:05:33.697Z,10.00
2022-12-02T13:08:00.945Z,9.90
2022-12-02T13:10:28.172Z,9.90
2022-12-02T13:12:55.377Z,9.90
2022-12-02T13:15:22.576Z,10.00
2022-12-02T13:17:49.743Z,10.00
2022-12-02T13:20:17.578Z,10.00
2022-12-02T13:22:45.235Z,10.00
2022-12-02T13:25:13.258Z,9.90
2022-12-02T13:27:40.621Z,9.90
2022-12-02T13:30:10.209Z,9.80
2022-12-02T13:32:37.547Z,9.80
2022-12-02T13:35:05.376Z,9.80
2022-12-02T13:37:32.563Z,9.80
2022-12-02T13:39:59.720Z,9.80
2022-12-02T13:42:26.879Z,9.80
2022-12-02T13:44:54.279Z,9.90
2022-12-02T13:47:21.660Z,10.00
2022-12-02T13:49:49.040Z,10.00
2022-12-02T13:52:16.584Z,10.10
2022-12-02T13:54:43.787Z,10.00
2022-12-02T13:57:10.941Z,10.00
2022-12-02T13:59:38.816Z,9.90
2022-12-02T14:02:06.338Z,9.90
2022-12-02T14:04:33.758Z,9.90
2022-12-02T14:07:01.891Z,9.90
2022-12-02T14:09:29.057Z,9.80
2022-12-02T14:11:56.325Z,9.80
2022-12-02T14:14:24.237Z,9.80
2022-12-02T14:16:51.434Z,9.70
2022-12-02T14:19:18.597Z,9.70
2022-12-02T14:21:46.233Z,9.70
2022-12-02T14:24:13.391Z,9.70
2022-12-02T14:26:40.584Z,9.70
2022-12-02T14:29:07.767Z,9.60
2022-12-02T14:31:35.027Z,9.60
2022-12-02T14:34:11.363Z,9.50
2022-12-02T14:36:39.446Z,9.50
2022-12-02T14:39:07.006Z,9.50
2022-12-02T14:41:34.156Z,9.50
2022-12-02T14:44:01.355Z,9.50
2022-12-02T14:46:30.563Z,9.50
2022-12-02T14:49:23.124Z,9.40
2022-12-02T14:51:45.124Z,9.40
2022-12-02T14:54:12.310Z,9.40
2022-12-02T14:56:39.563Z,9.40
2022-12-02T14:59:12.633Z,9.40
2022-12-02T15:01:41.890Z,9.40
2022-12-02T15:04:09.434Z,9.40
2022-12-02T15:06:36.671Z,9.40
2022-12-02T15:09:04.532Z,9.40
2022-12-02T15:11:31.790Z,9.30
2022-12-02T15:13:58.938Z,9.30
2022-12-02T15:16:28.204Z,9.30
2022-12-02T15:18:55.432Z,9.30
2022-12-02T15:21:22.591Z,9.30
2022-12-02T15:23:52.464Z,9.30
2022-12-02T15:26:19.631Z,9.20
2022-12-02T15:28:46.885Z,9.20
2022-12-02T15:31:17.756Z,9.10
2022-12-02T15:33:45.566Z,9.10
2022-12-02T15:36:13.260Z,9.10
2022-12-02T15:38:40.461Z,9.00
2022-12-02T15:41:07.873Z,9.00
2022-12-02T15:43:35.181Z,9.00
2022-12-02T15:46:02.733Z,9.00
2022-12-02T15:48:30.034Z,9.00
2022-12-02T15:50:57.354Z,9.00
2022-12-02T15:53:24.618Z,9.00
2022-12-02T15:55:52.275Z,9.00
2022-12-02T15:58:19.770Z,9.00
2022-12-02T16:00:47.160Z,9.00
2022-12-02T16:03:14.389Z,9.10
2022-12-02T16:05:41.556Z,9.10
2022-12-02T16:08:08.845Z,9.10
2022-12-02T16:10:36.116Z,9.00
2022-12-02T16:13:03.323Z,9.00
2022-12-02T16:15:30.512Z,9.00
2022-12-02T16:17:57.753Z,9.00
2022-12-02T16:20:24.921Z,9.00
2022-12-02T16:22:52.155Z,9.00
2022-12-02T16:25:19.406Z,9.00
2022-12-02T16:27:46.569Z,9.00
2022-12-02T16:30:13.836Z,9.00
2022-12-02T16:32:40.984Z,9.00
2022-12-02T16:35:08.508Z,9.00
2022-12-02T16:37:35.718Z,9.00
2022-12-02T16:40:03.325Z,9.00
2022-12-02T16:42:30.472Z,9.00
2022-12-02T16:44:58.273Z,9.00
2022-12-02T16:47:25.779Z,9.00
2022-12-02T16:49:52.965Z,9.00
2022-12-02T16:52:20.149Z,9.10
2022-12-02T16:54:47.325Z,9.10
2022-12-02T16:57:14.512Z,9.00
2022-12-02T16:59:41.689Z,9.00
2022-12-02T17:02:10.141Z,9.10
2022-12-02T17:04:37.535Z,9.10
2022-12-02T17:07:04.855Z,9.10
2022-12-02T17:09:32.202Z,9.10
2022-12-02T17:12:00.423Z,9.10
2022-12-02T17:14:27.681Z,9.20
2022-12-02T17:16:54.900Z,9.20
2022-12-02T17:19:22.116Z,9.10
2022-12-02T17:21:49.344Z,9.00
2022-12-02T17:24:16.539Z,9.00
2022-12-02T17:26:43.759Z,8.90
2022-12-02T17:29:11.068Z,9.00
2022-12-02T17:31:38.419Z,8.90
2022-12-02T17:34:05.677Z,8.90
2022-12-02T17:36:32.916Z,8.90
2022-12-02T17:39:00.111Z,8.90
2022-12-02T17:41:27.465Z,8.90
2022-12-02T17:43:54.665Z,9.00
2022-12-02T17:46:22.148Z,8.90
2022-12-02T17:48:49.661Z,8.80
2022-12-02T17:51:17.031Z,8.80
2022-12-02T17:53:44.533Z,8.90
2022-12-02T17:56:11.704Z,8.80
2022-12-02T17:58:38.944Z,8.70
2022-12-02T18:01:11.596Z,8.70
2022-12-02T18:03:39.970Z,8.70
2022-12-02T18:06:07.472Z,8.70
2022-12-02T18:08:34.755Z,8.70
2022-12-02T18:11:02.026Z,8.60
2022-12-02T18:13:30.098Z,8.60
2022-12-02T18:15:57.549Z,8.60
2022-12-02T18:18:24.760Z,8.60
2022-12-02T18:20:52.770Z,8.60
2022-12-02T18:23:23.589Z,8.60
2022-12-02T18:25:53.445Z,8.60
2022-12-02T18:28:20.633Z,8.60
2022-12-02T18:30:47.862Z,8.60
2022-12-02T18:33:15.083Z,8.60
2022-12-02T18:35:42.264Z,8.60
2022-12-02T18:38:09.407Z,8.60
2022-12-02T18:40:36.645Z,8.50
2022-12-02T18:43:05.997Z,8.50
2022-12-02T18:45:34.166Z,8.50
2022-12-02T18:48:04.868Z,8.50
2022-12-02T18:50:32.049Z,8.50
2022-12-02T18:52:59.274Z,8.50
2022-12-02T18:55:26.429Z,8.40
2022-12-02T18:57:53.611Z,8.40
2022-12-02T19:00:20.819Z,8.40
2022-12-02T19:02:48.091Z,8.40
2022-12-02T19:05:15.301Z,8.40
2022-12-02T19:07:42.516Z,8.40
2022-12-02T19:10:10.223Z,8.30
2022-12-02T19:12:37.395Z,8.30
2022-12-02T19:15:05.717Z,8.30
2022-12-02T19:17:32.889Z,8.30
2022-12-02T19:20:00.201Z,8.30
2022-12-02T19:22:27.459Z,8.20
2022-12-02T19:24:54.805Z,8.20
2022-12-02T19:27:56.265Z,8.10
2022-12-02T19:30:09.719Z,8.20
2022-12-02T19:32:36.892Z,8.20
2022-12-02T19:35:04.225Z,8.10
2022-12-02T19:37:31.381Z,8.10
2022-12-02T19:39:58.520Z,8.10
2022-12-02T19:42:25.691Z,8.10
2022-12-02T19:44:53.169Z,8.20
2022-12-02T19:47:20.559Z,8.10
2022-12-02T19:49:47.724Z,8.10
2022-12-02T19:52:14.908Z,8.20
2022-12-02T19:54:47.908Z,8.20
2022-12-02T19:57:18.276Z,8.20
2022-12-02T19:59:45.434Z,8.20
2022-12-02T20:02:12.740Z,8.30
2022-12-02T20:04:41.979Z,8.30
2022-12-02T20:07:09.836Z,8.30
2022-12-02T20:09:37.052Z,8.30
2022-12-02T20:12:04.328Z,8.30
2022-12-02T20:14:31.533Z,8.30
2022-12-02T20:16:58.791Z,8.30
2022-12-02T20:19:25.983Z,8.20
2022-12-02T20:21:53.379Z,8.20
2022-12-02T20:24:20.577Z,8.20
2022-12-02T20:26:47.747Z,8.10
2022-12-02T20:29:14.936Z,8.20
2022-12-02T20:31:42.187Z,8.20
2022-12-02T20:34:09.492Z,8.20
2022-12-02T20:36:36.797Z,8.20
2022-12-02T20:39:04.221Z,8.10
2022-12-02T20:41:31.376Z,8.10
2022-12-02T20:43:58.555Z,8.10
2022-12-02T20:46:25.872Z,8.10
2022-12-02T20:48:53.176Z,8.10
2022-12-02T20:51:20.323Z,8.10
2022-12-02T20:53:47.552Z,8.10
2022-12-02T20:56:14.712Z,8.10
2022-12-02T20:58:42.205Z,8.10
2022-12-02T21:01:12.720Z,8.20
2022-12-02T21:03:40.165Z,8.10
2022-12-02T21:06:07.616Z,8.10
2022-12-02T21:08:34.852Z,8.10
2022-12-02T21:11:02.308Z,8.20
2022-12-02T21:13:29.591Z,8.10
2022-12-02T21:15:56.997Z,8.10
2022-12-02T21:18:25.243Z,8.10
2022-12-02T21:20:52.607Z,8.10
2022-12-02T21:23:19.824Z,8.20
2022-12-02T21:25:47.071Z,8.20
2022-12-02T21:28:14.295Z,8.20
2022-12-02T21:30:42.398Z,8.20
2022-12-02T21:33:09.539Z,8.20
2022-12-02T21:35:36.779Z,8.10
2022-12-02T21:38:04.009Z,8.00
2022-12-02T21:40:31.215Z,7.90
2022-12-02T21:42:58.431Z,7.80
2022-12-02T21:45:25.664Z,7.70
2022-12-02T21:47:52.894Z,7.70
2022-12-02T21:50:20.132Z,7.70
2022-12-02T21:52:47.359Z,7.70
2022-12-02T21:55:14.544Z,7.70
2022-12-02T21:57:41.753Z,7.80
2022-12-02T22:00:09.299Z,7.80
2022-12-02T22:02:42.430Z,7.80
2022-12-02T22:05:09.676Z,7.80
2022-12-02T22:07:43.588Z,7.80
2022-12-02T22:10:10.966Z,7.80
2022-12-02T22:12:38.683Z,7.70
2022-12-02T22:15:07.068Z,7.70
2022-12-02T22:17:34.501Z,7.70
2022-12-02T22:20:01.834Z,7.70
2022-12-02T22:22:29.018Z,7.60
2022-12-02T22:24:56.319Z,7.60
2022-12-02T22:27:23.651Z,7.60
2022-12-02T22:29:50.833Z,7.60
2022-12-02T22:32:18.083Z,7.60
2022-12-02T22:34:45.332Z,7.60
2022-12-02T22:37:12.545Z,7.60
2022-12-02T22:39:39.690Z,7.70
2022-12-02T22:42:06.938Z,7.60
2022-12-02T22:44:34.140Z,7.60
2022-12-02T22:47:01.386Z,7.70
2022-12-02T22:49:28.709Z,7.60
2022-12-02T22:51:55.881Z,7.60
2022-12-02T22:54:23.032Z,7.60
2022-12-02T22:56:50.213Z,7.60
2022-12-02T22:59:17.381Z,7.60
2022-12-02T23:01:44.638Z,7.60
2022-12-02T23:04:11.963Z,7.60
2022-12-02T23:06:39.112Z,7.70
2022-12-02T23:09:06.493Z,7.60
2022-12-02T23:11:33.685Z,7.70
2022-12-02T23:14:00.853Z,7.70
2022-12-02T23:16:28.495Z,7.70
2022-12-02T23:18:55.768Z,7.80
2022-12-02T23:21:24.001Z,7.80
2022-12-02T23:23:51.192Z,7.80
2022-12-02T23:26:18.360Z,7.70
2022-12-02T23:28:45.580Z,7.80
2022-12-02T23:31:12.804Z,7.80
2022-12-02T23:33:40.096Z,7.90
2022-12-02T23:36:07.395Z,8.00
2022-12-02T23:38:34.565Z,7.90
2022-12-02T23:41:01.738Z,8.00
2022-12-02T23:43:29.194Z,8.00
2022-12-02T23:45:56.392Z,8.00
2022-12-02T23:48:23.599Z,8.10
2022-12-02T23:50:50.938Z,8.20
2022-12-02T23:53:18.077Z,8.20
2022-12-02T23:55:45.230Z,8.20
2022-12-02T23:58:12.403Z,8.20
